Lone Grove, Oklahoma
Current Conditions -  °F | °C
As of 7:15 PM on Sunday 21 Dec 2014 (Local Time) from K1F0 Reporting Station
Overcast Overcast  
Wind Chill: 43°   Ceiling: 1100
Heat Index: 46°   Visibility: 10mi
Dew Point: 45°   Wind: 7mph
Humidity: 93%   Direction: 170°S
Pressure: 29.79"   Gusts: NA
Location:  34.18°N, 97.26°W
Report Text: K1F0 220115Z AUTO 17006KT 10SM OVC011 08/07 A2979 RMK AO2
Loading
Personal Weather Stations






























Interactive Weather Map New forecast layout! Learn more

10-Day Weather Forecast

Advertisements
Track Severe Weather on mobile